Time;durP1;ratioP1;P1;durP2;ratioP2;P2;SDS_P1;SDS_P2;PMS_P1;PMS_P2;Temp;Humidity;BMP_temperature;BMP_pressure;BME280_temperature;BME280_humidity;BME280_pressure;Samples;Min_cycle;Max_cycle;Signal;HPM_P1;HPM_P2
2023/11/18 00:01:48;;;;;;;0.98;0.95;;;;;;;-1.30;85.26;101514.31;5066747;28;20465;-65
2023/11/18 00:04:15;;;;;;;1.50;1.40;;;;;;;-1.23;85.22;101519.75;5066561;28;20100;-66
2023/11/18 00:06:44;;;;;;;0.85;0.85;;;;;;;-1.29;85.23;101510.06;5066641;28;20029;-66
2023/11/18 00:09:14;;;;;;;1.75;1.50;;;;;;;-1.18;85.39;101511.56;5066302;28;20025;-65
2023/11/18 00:11:42;;;;;;;0.85;0.85;;;;;;;-1.20;85.32;101509.75;5081889;28;20025;-66
2023/11/18 00:14:08;;;;;;;0.70;0.70;;;;;;;-1.13;85.30;101516.94;5066407;28;20021;-66
2023/11/18 00:16:34;;;;;;;0.75;0.75;;;;;;;-1.15;85.43;101516.84;5066375;28;20518;-66
2023/11/18 00:19:00;;;;;;;1.95;1.83;;;;;;;-1.13;85.45;101516.94;5066332;28;20032;-66
2023/11/18 00:21:25;;;;;;;6.05;2.20;;;;;;;-1.14;85.46;101521.19;5066373;28;20027;-66
2023/11/18 00:23:51;;;;;;;0.90;0.90;;;;;;;-1.08;85.44;101520.63;5066149;28;20491;-67
2023/11/18 00:26:16;;;;;;;0.73;0.73;;;;;;;-1.08;85.44;101522.28;5066061;28;20051;-65
2023/11/18 00:28:42;;;;;;;0.60;0.60;;;;;;;-1.03;85.65;101524.34;5065162;28;20111;-66
2023/11/18 00:31:07;;;;;;;1.75;1.30;;;;;;;-1.08;85.31;101523.19;5066258;28;20080;-68
2023/11/18 00:33:32;;;;;;;1.98;1.38;;;;;;;-1.04;85.47;101527.66;5065912;28;20025;-67
2023/11/18 00:36:00;;;;;;;1.27;1.17;;;;;;;-1.01;85.33;101530.38;5066030;28;20043;-66
2023/11/18 00:38:25;;;;;;;0.63;0.63;;;;;;;-1.01;85.36;101527.84;5065787;28;20037;-66
2023/11/18 00:40:51;;;;;;;1.35;1.25;;;;;;;-1.03;85.45;101534.53;5065603;28;20086;-66
2023/11/18 00:43:16;;;;;;;1.05;1.05;;;;;;;-1.07;85.22;101527.47;5064624;28;20092;-65
2023/11/18 00:45:43;;;;;;;1.42;1.40;;;;;;;-1.06;85.14;101530.91;5065800;28;20028;-66
2023/11/18 00:48:08;;;;;;;0.60;0.60;;;;;;;-1.11;85.25;101530.66;5065787;28;20076;-66
2023/11/18 00:50:34;;;;;;;5.78;2.72;;;;;;;-1.20;85.45;101520.81;5065739;28;20078;-67
2023/11/18 00:52:59;;;;;;;7.82;1.25;;;;;;;-1.12;85.51;101531.47;5065605;28;20487;-66
2023/11/18 00:55:24;;;;;;;0.73;0.73;;;;;;;-1.15;85.34;101538.94;5065604;28;20088;-66
2023/11/18 00:57:50;;;;;;;3.17;1.60;;;;;;;-1.10;85.39;101546.84;5065669;28;20048;-66
2023/11/18 01:00:16;;;;;;;5.35;1.13;;;;;;;-1.13;85.34;101542.41;5080986;28;20032;-66
2023/11/18 01:02:42;;;;;;;0.70;0.70;;;;;;;-1.12;85.41;101541.66;5065659;28;20034;-66
2023/11/18 01:05:10;;;;;;;0.98;0.82;;;;;;;-1.12;85.25;101532.31;5065050;28;20028;-66
2023/11/18 01:07:37;;;;;;;4.22;1.73;;;;;;;-1.09;85.07;101543.50;5064113;28;20021;-66
2023/11/18 01:10:03;;;;;;;1.50;1.40;;;;;;;-1.13;85.24;101539.88;5065186;28;20051;-67
2023/11/18 01:12:29;;;;;;;0.50;0.50;;;;;;;-1.13;85.14;101539.88;5063684;28;20113;-67
2023/11/18 01:14:54;;;;;;;0.57;0.57;;;;;;;-1.20;85.11;101537.78;5065110;28;20362;-67
2023/11/18 01:17:22;;;;;;;0.82;0.73;;;;;;;-1.23;85.17;101546.09;5065085;28;20025;-67
2023/11/18 01:19:47;;;;;;;0.60;0.60;;;;;;;-1.22;85.36;101541.91;5065146;28;20020;-68
2023/11/18 01:22:13;;;;;;;0.73;0.73;;;;;;;-1.22;85.27;101537.69;5065156;28;20052;-68
2023/11/18 01:24:38;;;;;;;0.63;0.63;;;;;;;-1.26;85.23;101544.25;5065088;28;20029;-68
2023/11/18 01:27:04;;;;;;;2.67;1.58;;;;;;;-1.28;85.25;101544.97;5064905;28;20033;-67
2023/11/18 01:29:29;;;;;;;0.50;0.50;;;;;;;-1.29;85.14;101544.09;5064760;28;20025;-67
2023/11/18 01:31:58;;;;;;;0.70;0.70;;;;;;;-1.29;85.15;101546.63;5064942;28;20057;-68
2023/11/18 01:34:23;;;;;;;1.45;1.38;;;;;;;-1.38;85.04;101538.44;5064848;28;20021;-68
2023/11/18 01:36:50;;;;;;;0.70;0.70;;;;;;;-1.40;85.24;101542.56;5064721;28;20105;-68
2023/11/18 01:39:17;;;;;;;1.58;1.48;;;;;;;-1.39;85.36;101546.91;5064521;28;20036;-68
2023/11/18 01:41:44;;;;;;;0.85;0.70;;;;;;;-1.46;85.26;101538.00;5064882;28;20055;-67
2023/11/18 01:44:09;;;;;;;0.70;0.70;;;;;;;-1.43;85.31;101542.38;5065090;28;20408;-67
2023/11/18 01:46:35;;;;;;;0.73;0.73;;;;;;;-1.48;85.39;101541.22;5080302;28;20419;-68
2023/11/18 01:49:03;;;;;;;0.88;0.88;;;;;;;-1.50;85.37;101547.13;5080128;28;20023;-68
2023/11/18 01:51:30;;;;;;;2.00;1.83;;;;;;;-1.55;85.47;101538.31;5064747;28;20017;-67
2023/11/18 01:53:59;;;;;;;0.75;0.75;;;;;;;-1.54;85.53;101542.66;5064711;28;20028;-67
2023/11/18 01:56:25;;;;;;;1.02;0.93;;;;;;;-1.54;85.66;101540.09;5064669;28;20017;-67
2023/11/18 01:58:52;;;;;;;0.52;0.52;;;;;;;-1.63;85.72;101532.78;5063537;28;20045;-69
2023/11/18 02:01:18;;;;;;;1.23;1.13;;;;;;;-1.61;85.90;101537.94;5064576;28;20107;-68
2023/11/18 02:03:44;;;;;;;3.45;1.10;;;;;;;-1.63;85.79;101534.47;5080046;28;20024;-68
2023/11/18 02:06:10;;;;;;;0.77;0.77;;;;;;;-1.65;85.92;101542.00;5063336;28;20306;-68
2023/11/18 02:08:37;;;;;;;0.93;0.93;;;;;;;-1.63;85.83;101545.50;5064713;28;20052;-68
2023/11/18 02:11:26;;;;;;;0.50;0.50;;;;;;;-1.67;85.91;101540.13;5064376;28;20481;-68
2023/11/18 02:13:55;;;;;;;0.80;0.80;;;;;;;-1.69;86.04;101534.94;5063140;28;20069;-68
2023/11/18 02:16:20;;;;;;;0.55;0.55;;;;;;;-1.74;85.95;101536.34;5064422;28;20096;-67
2023/11/18 02:18:47;;;;;;;1.80;1.70;;;;;;;-1.76;85.96;101537.94;5064831;28;20025;-67
2023/11/18 02:21:14;;;;;;;2.25;1.45;;;;;;;-1.80;86.11;101530.88;5064614;28;20021;-67
2023/11/18 02:23:41;;;;;;;1.80;1.67;;;;;;;-1.82;86.43;101543.50;5064507;28;20021;-68
2023/11/18 02:26:07;;;;;;;0.63;0.63;;;;;;;-1.83;86.33;101540.88;5064260;28;20051;-68
2023/11/18 02:28:33;;;;;;;0.70;0.70;;;;;;;-1.82;86.31;101535.88;5063045;28;20021;-67
2023/11/18 02:31:15;;;;;;;1.15;1.15;;;;;;;-1.81;86.48;101542.75;5064318;28;20108;-68
2023/11/18 02:33:50;;;;;;;0.60;0.60;;;;;;;-1.79;86.33;101536.06;5062864;28;20088;-68
2023/11/18 02:36:26;;;;;;;2.40;2.22;;;;;;;-1.83;86.20;101546.84;5063380;28;20125;-68
2023/11/18 02:38:54;;;;;;;0.60;0.60;;;;;;;-1.96;86.47;101518.88;5062963;28;20105;-68
2023/11/18 02:41:22;;;;;;;1.02;1.02;;;;;;;-1.85;86.49;101540.78;5064173;28;20035;-68
2023/11/18 02:43:49;;;;;;;1.80;1.67;;;;;;;-1.80;86.63;101539.41;5064153;28;20089;-66
2023/11/18 02:46:15;;;;;;;1.45;1.17;;;;;;;-1.78;86.31;101534.41;5064249;28;20092;-68
2023/11/18 02:48:41;;;;;;;0.80;0.80;;;;;;;-1.82;86.39;101530.78;5064189;28;20036;-69
2023/11/18 02:51:08;;;;;;;1.35;1.25;;;;;;;-1.79;86.29;101525.03;5064131;28;20040;-67
2023/11/18 02:53:34;;;;;;;1.25;1.15;;;;;;;-1.77;86.12;101531.94;5067365;28;20029;-69
2023/11/18 02:56:02;;;;;;;1.08;1.02;;;;;;;-1.79;86.03;101538.59;5067517;28;20052;-68
2023/11/18 02:58:29;;;;;;;0.60;0.60;;;;;;;-1.84;86.14;101539.13;5067897;28;20021;-68
2023/11/18 03:00:54;;;;;;;0.60;0.60;;;;;;;-1.92;86.31;101534.47;5067797;28;20184;-68
2023/11/18 03:03:20;;;;;;;0.98;0.98;;;;;;;-2.03;86.46;101528.69;5067378;28;20440;-69
2023/11/18 03:05:48;;;;;;;1.75;0.82;;;;;;;-1.93;86.50;101542.00;5067515;28;20017;-69
2023/11/18 03:08:14;;;;;;;0.45;0.45;;;;;;;-1.89;86.46;101539.75;5067687;28;20032;-69
2023/11/18 03:10:40;;;;;;;0.50;0.50;;;;;;;-1.84;86.48;101556.94;5067510;28;20029;-68
2023/11/18 03:13:06;;;;;;;0.50;0.50;;;;;;;-1.89;86.74;101551.56;5067638;28;20419;-69
2023/11/18 03:15:32;;;;;;;1.00;1.00;;;;;;;-1.95;86.63;101543.56;5067448;28;20025;-69
2023/11/18 03:17:57;;;;;;;0.80;0.80;;;;;;;-1.95;86.74;101543.56;5067425;28;20036;-69
2023/11/18 03:20:23;;;;;;;1.65;1.55;;;;;;;-2.05;87.11;101532.81;5067076;28;20032;-69
2023/11/18 03:22:51;;;;;;;0.60;0.60;;;;;;;-2.07;87.10;101531.84;5067295;28;20021;-68
2023/11/18 03:25:17;;;;;;;0.95;0.95;;;;;;;-2.08;87.28;101537.72;5067172;28;20029;-68
2023/11/18 03:27:44;;;;;;;0.68;0.68;;;;;;;-2.09;87.44;101530.84;5066932;28;20021;-68
2023/11/18 03:30:10;;;;;;;5.38;0.90;;;;;;;-2.10;87.56;101524.03;5067047;28;20105;-68
2023/11/18 03:32:36;;;;;;;0.70;0.70;;;;;;;-2.08;87.40;101529.19;5066869;28;20021;-68
2023/11/18 03:35:03;;;;;;;0.60;0.60;;;;;;;-2.05;87.38;101521.75;5067383;28;20025;-68
2023/11/18 03:37:28;;;;;;;0.60;0.60;;;;;;;-2.15;87.51;101528.81;5066967;28;20020;-67
2023/11/18 03:39:53;;;;;;;0.50;0.50;;;;;;;-2.20;87.83;101529.31;5066885;28;20479;-68
2023/11/18 03:42:19;;;;;;;0.50;0.50;;;;;;;-2.19;87.99;101524.31;5067059;28;20051;-68
2023/11/18 03:44:47;;;;;;;0.60;0.60;;;;;;;-2.24;88.05;101521.50;5066725;28;20029;-67
2023/11/18 03:47:13;;;;;;;0.82;0.82;;;;;;;-2.31;88.25;101521.00;5067006;28;20487;-67
2023/11/18 03:49:39;;;;;;;0.60;0.60;;;;;;;-2.29;88.51;101524.53;5066819;28;20025;-67
2023/11/18 03:52:05;;;;;;;0.73;0.73;;;;;;;-2.34;88.52;101511.53;5066744;28;20564;-69
2023/11/18 03:54:31;;;;;;;0.60;0.60;;;;;;;-2.28;88.56;101531.38;5066542;28;20101;-67
2023/11/18 03:56:56;;;;;;;0.50;0.50;;;;;;;-2.33;88.75;101528.56;5066688;28;20024;-68
2023/11/18 03:59:21;;;;;;;0.50;0.50;;;;;;;-2.38;88.86;101524.84;5066576;28;20028;-68
2023/11/18 04:01:48;;;;;;;1.17;1.13;;;;;;;-2.33;89.06;101528.56;5066596;28;20190;-68
2023/11/18 04:04:14;;;;;;;0.65;0.65;;;;;;;-2.39;89.37;101533.25;5066536;28;20049;-68
2023/11/18 04:06:39;;;;;;;0.70;0.70;;;;;;;-2.36;89.21;101515.63;5066198;28;20036;-68
2023/11/18 04:09:05;;;;;;;0.60;0.60;;;;;;;-2.32;89.32;101517.63;5081738;28;20032;-68
2023/11/18 04:11:31;;;;;;;0.55;0.55;;;;;;;-2.32;89.25;101520.16;5066301;28;20039;-68
2023/11/18 04:13:56;;;;;;;1.52;1.40;;;;;;;-2.33;89.19;101514.97;5066145;28;20025;-69
2023/11/18 04:16:21;;;;;;;0.50;0.50;;;;;;;-2.29;89.17;101514.38;5066270;28;20080;-68
2023/11/18 04:18:47;;;;;;;1.08;1.05;;;;;;;-2.29;88.86;101522.88;5064793;28;20025;-67
2023/11/18 04:21:13;;;;;;;0.45;0.45;;;;;;;-2.30;89.37;101518.56;5066223;28;20499;-68
2023/11/18 04:23:39;;;;;;;1.70;1.60;;;;;;;-2.31;89.37;101511.72;5066025;28;20025;-68
2023/11/18 04:26:07;;;;;;;0.60;0.60;;;;;;;-2.29;89.40;101511.81;5066045;28;20032;-67
2023/11/18 04:28:32;;;;;;;0.70;0.70;;;;;;;-2.34;89.66;101503.03;5066099;28;20025;-68
2023/11/18 04:30:58;;;;;;;2.28;1.23;;;;;;;-2.31;89.74;101510.84;5081441;28;20484;-67
2023/11/18 04:33:24;;;;;;;0.60;0.60;;;;;;;-2.30;89.84;101508.38;5065882;28;20044;-67
2023/11/18 04:35:51;;;;;;;0.93;0.93;;;;;;;-2.24;89.66;101506.22;5064568;28;20033;-69
2023/11/18 04:38:16;;;;;;;1.05;1.05;;;;;;;-2.49;89.57;101476.72;5065591;28;20041;-67
2023/11/18 04:40:44;;;;;;;0.82;0.82;;;;;;;-2.22;89.44;101508.84;5065893;28;20143;-67
2023/11/18 04:43:10;;;;;;;0.50;0.50;;;;;;;-2.31;89.65;101487.94;5081210;28;20033;-67
2023/11/18 04:45:36;;;;;;;0.50;0.50;;;;;;;-2.22;90.20;101513.09;5065455;28;20599;-67
2023/11/18 04:48:02;;;;;;;0.50;0.50;;;;;;;-2.23;90.22;101499.47;5065651;28;20024;-67
2023/11/18 04:50:28;;;;;;;0.50;0.50;;;;;;;-2.19;90.46;101498.00;5065922;28;20025;-68
2023/11/18 04:52:54;;;;;;;0.50;0.50;;;;;;;-2.15;90.45;101498.28;5065591;28;20024;-67
2023/11/18 04:55:20;;;;;;;0.60;0.60;;;;;;;-2.09;90.54;101502.00;5064962;28;20032;-67
2023/11/18 04:57:45;;;;;;;0.50;0.50;;;;;;;-2.04;90.50;101486.22;5065592;28;20029;-67
2023/11/18 05:00:11;;;;;;;0.50;0.50;;;;;;;-2.03;90.50;101490.50;5065516;28;20032;-67
2023/11/18 05:02:38;;;;;;;0.60;0.60;;;;;;;-1.97;90.07;101481.50;5065181;28;20025;-67
2023/11/18 05:05:06;;;;;;;2.28;0.95;;;;;;;-2.05;90.21;101474.28;5065508;28;20029;-68
2023/11/18 05:07:31;;;;;;;1.15;1.05;;;;;;;-2.05;90.32;101484.47;5080248;28;20021;-66
2023/11/18 05:09:57;;;;;;;0.60;0.60;;;;;;;-2.05;90.82;101478.50;5065101;28;20047;-67
2023/11/18 05:12:22;;;;;;;0.55;0.55;;;;;;;-2.01;90.95;101482.97;5065286;28;20029;-67
2023/11/18 05:14:49;;;;;;;0.82;0.82;;;;;;;-2.09;90.93;101457.06;5064670;28;20029;-67
2023/11/18 05:17:15;;;;;;;1.15;0.85;;;;;;;-1.90;90.98;101483.66;5063894;28;20029;-67
2023/11/18 05:19:42;;;;;;;2.80;0.75;;;;;;;-1.93;90.76;101479.22;5065018;28;20028;-67
2023/11/18 05:22:08;;;;;;;0.60;0.60;;;;;;;-1.88;90.66;101476.94;5065237;28;20025;-67
2023/11/18 05:24:33;;;;;;;0.60;0.60;;;;;;;-1.95;90.32;101480.78;5064964;28;20066;-68
2023/11/18 05:27:01;;;;;;;1.17;1.08;;;;;;;-2.03;90.43;101477.78;5064789;28;20021;-66
2023/11/18 05:29:27;;;;;;;0.65;0.65;;;;;;;-2.07;90.66;101465.69;5063524;28;20029;-67
2023/11/18 05:31:54;;;;;;;2.35;0.90;;;;;;;-2.04;90.56;101472.59;5065201;28;20032;-67
2023/11/18 05:34:20;;;;;;;2.95;1.77;;;;;;;-2.09;90.18;101466.38;5065254;28;20051;-66
2023/11/18 05:36:54;;;;;;;0.50;0.50;;;;;;;-2.15;90.21;101465.22;5064733;28;20381;-66
2023/11/18 05:39:20;;;;;;;0.68;0.68;;;;;;;-2.18;90.49;101466.69;5064691;28;20051;-67
2023/11/18 05:41:49;;;;;;;1.58;0.90;;;;;;;-2.22;90.65;101468.16;5065354;28;20095;-66
2023/11/18 05:44:19;;;;;;;0.50;0.50;;;;;;;-2.19;90.66;101468.34;5064927;28;20053;-66
2023/11/18 05:46:47;;;;;;;1.83;1.30;;;;;;;-2.24;90.78;101457.88;5064626;28;20055;-66
2023/11/18 05:49:13;;;;;;;1.77;1.67;;;;;;;-2.18;91.04;101457.41;5064861;28;20075;-66
2023/11/18 05:51:42;;;;;;;0.50;0.50;;;;;;;-2.16;91.11;101455.84;5064621;28;20025;-66
2023/11/18 05:54:08;;;;;;;0.50;0.50;;;;;;;-2.12;90.55;101456.88;5064929;28;20082;-66
2023/11/18 05:56:33;;;;;;;0.60;0.60;;;;;;;-2.14;90.44;101456.78;5064616;28;20050;-67
2023/11/18 05:58:59;;;;;;;0.60;0.60;;;;;;;-2.22;90.67;101465.59;5064804;28;20032;-67
2023/11/18 06:01:27;;;;;;;1.00;0.98;;;;;;;-2.24;90.87;101465.50;5064578;28;20405;-66
2023/11/18 06:03:52;;;;;;;2.35;2.15;;;;;;;-2.22;90.89;101472.38;5064560;28;20085;-67
2023/11/18 06:06:18;;;;;;;0.60;0.60;;;;;;;-2.13;90.88;101470.41;5064620;28;20025;-67
2023/11/18 06:08:44;;;;;;;0.50;0.50;;;;;;;-2.12;90.65;101482.31;5079949;28;20025;-66
2023/11/18 06:11:14;;;;;;;0.90;0.90;;;;;;;-2.15;90.82;101469.41;5064433;28;20186;-66
2023/11/18 06:13:44;;;;;;;0.90;0.90;;;;;;;-2.18;90.80;101465.03;5064569;28;20032;-67
2023/11/18 06:16:14;;;;;;;2.35;2.15;;;;;;;-2.13;90.70;101478.91;5064683;28;20021;-66
2023/11/18 06:18:44;;;;;;;0.75;0.75;;;;;;;-2.09;90.26;101477.41;5064658;28;20017;-67
2023/11/18 06:21:18;;;;;;;0.50;0.50;;;;;;;-2.17;89.97;101482.03;5064512;28;20021;-65
2023/11/18 06:23:45;;;;;;;0.52;0.52;;;;;;;-2.26;90.11;101482.38;5063074;28;20120;-66
2023/11/18 06:26:11;;;;;;;1.10;1.10;;;;;;;-2.33;90.63;101487.84;5064282;28;20024;-67
2023/11/18 06:28:48;;;;;;;0.60;0.60;;;;;;;-2.34;90.85;101475.94;5067878;28;20079;-66
2023/11/18 06:31:14;;;;;;;0.60;0.60;;;;;;;-2.28;90.85;101476.31;5068102;28;20027;-66
2023/11/18 06:33:43;;;;;;;0.82;0.82;;;;;;;-2.30;90.78;101474.47;5067050;28;20111;-67
2023/11/18 06:36:22;;;;;;;0.50;0.50;;;;;;;-2.27;90.81;101478.03;5068046;28;20025;-66
2023/11/18 06:38:51;;;;;;;0.60;0.60;;;;;;;-2.46;90.92;101455.69;5068035;28;20048;-66
2023/11/18 06:41:18;;;;;;;0.70;0.70;;;;;;;-2.30;90.98;101484.63;5067908;28;20388;-67
2023/11/18 06:43:51;;;;;;;0.98;0.85;;;;;;;-2.30;91.06;101482.09;5083345;28;20035;-66
2023/11/18 06:46:24;;;;;;;0.57;0.57;;;;;;;-2.32;91.18;101476.91;5068010;28;20032;-66
2023/11/18 06:48:54;;;;;;;0.60;0.60;;;;;;;-2.34;91.41;101485.22;5068062;28;20025;-66
2023/11/18 06:51:25;;;;;;;0.90;0.90;;;;;;;-2.36;91.42;101482.56;5067786;28;20025;-66
2023/11/18 06:53:51;;;;;;;;;;;;;;;-2.27;91.81;101490.78;5068282;28;20025;-67
2023/11/18 06:56:17;;;;;;;0.52;0.52;;;;;;;-2.35;92.01;101489.44;5067718;28;19952;-67
2023/11/18 06:58:43;;;;;;;0.70;0.70;;;;;;;-2.15;91.37;101483.03;5067651;28;20032;-67
2023/11/18 07:01:13;;;;;;;0.50;0.50;;;;;;;-2.07;90.89;101491.13;5067523;28;20098;-67
2023/11/18 07:03:39;;;;;;;1.65;1.58;;;;;;;-2.22;91.66;101492.75;5067233;28;20112;-67
2023/11/18 07:06:05;;;;;;;0.50;0.50;;;;;;;-2.20;92.04;101488.59;5065958;28;20055;-67
2023/11/18 07:08:31;;;;;;;0.60;0.60;;;;;;;-2.24;92.18;101487.56;5067406;28;20048;-67
2023/11/18 07:10:57;;;;;;;0.68;0.68;;;;;;;-2.19;92.13;101496.31;5067280;28;20051;-66
2023/11/18 07:13:23;;;;;;;0.57;0.57;;;;;;;-2.13;91.88;101490.75;5067587;28;20025;-66
2023/11/18 07:15:48;;;;;;;0.60;0.60;;;;;;;-2.19;92.18;101496.31;5067149;28;20026;-67
2023/11/18 07:18:14;;;;;;;0.60;0.60;;;;;;;-2.13;92.19;101500.94;5067382;28;20051;-67
2023/11/18 07:20:39;;;;;;;0.85;0.85;;;;;;;-2.19;92.24;101500.56;5067266;28;20025;-66
2023/11/18 07:23:05;;;;;;;0.60;0.60;;;;;;;-2.13;92.66;101506.91;5067269;28;20029;-66
2023/11/18 07:25:30;;;;;;;0.50;0.50;;;;;;;-2.15;92.73;101505.94;5065516;28;20097;-66
2023/11/18 07:27:55;;;;;;;0.50;0.50;;;;;;;-2.22;92.55;101483.41;5067254;28;20028;-65
2023/11/18 07:30:22;;;;;;;0.60;0.60;;;;;;;-2.09;92.58;101504.56;5067193;28;20040;-66
2023/11/18 07:32:48;;;;;;;2.15;1.08;;;;;;;-2.12;92.76;101508.66;5066890;28;20036;-65
2023/11/18 07:35:13;;;;;;;1.52;1.48;;;;;;;-2.05;92.85;101511.56;5067075;28;20032;-67
2023/11/18 07:37:38;;;;;;;1.25;1.10;;;;;;;-2.00;92.68;101508.50;5066486;28;20036;-66
2023/11/18 07:40:05;;;;;;;0.70;0.70;;;;;;;-2.03;92.79;101505.78;5066982;28;20021;-66
2023/11/18 07:42:36;;;;;;;1.67;1.55;;;;;;;-2.01;93.19;101509.31;5067062;28;20032;-66
2023/11/18 07:45:04;;;;;;;12.27;1.83;;;;;;;-1.88;93.18;101513.47;5065574;28;20092;-65
2023/11/18 07:47:34;;;;;;;0.73;0.73;;;;;;;-1.80;92.88;101511.41;5066764;28;20099;-66
2023/11/18 07:49:59;;;;;;;0.50;0.50;;;;;;;-1.72;92.44;101513.50;5066752;28;20455;-66
2023/11/18 07:52:27;;;;;;;0.65;0.65;;;;;;;-1.78;92.45;101501.31;5066781;28;20072;-66
2023/11/18 07:54:53;;;;;;;0.98;0.98;;;;;;;-1.76;92.35;101510.78;5066804;28;20072;-66
2023/11/18 07:57:18;;;;;;;0.50;0.50;;;;;;;-1.85;92.81;101506.81;5066579;28;20024;-67
2023/11/18 07:59:44;;;;;;;0.85;0.85;;;;;;;-1.78;92.70;101508.94;5066561;28;20029;-66
2023/11/18 08:02:10;;;;;;;1.67;1.58;;;;;;;-1.67;92.46;101525.75;5066601;28;20032;-66
2023/11/18 08:04:36;;;;;;;0.50;0.50;;;;;;;-1.76;92.66;101509.94;5065076;28;20489;-65
2023/11/18 08:07:04;;;;;;;4.15;1.08;;;;;;;-1.63;92.67;101525.13;5066006;28;20024;-66
2023/11/18 08:09:31;;;;;;;0.70;0.70;;;;;;;-1.60;92.51;101519.38;5066081;28;20104;-65
2023/11/18 08:11:56;;;;;;;0.50;0.50;;;;;;;-1.57;92.45;101519.53;5066548;28;20021;-66
2023/11/18 08:14:22;;;;;;;1.08;0.82;;;;;;;-1.55;92.49;101512.00;5081655;28;20028;-66
2023/11/18 08:16:47;;;;;;;0.50;0.50;;;;;;;-1.72;92.28;101493.13;5066415;28;20093;-66
2023/11/18 08:19:12;;;;;;;1.13;1.13;;;;;;;-1.55;92.53;101517.09;5066282;28;20453;-66
2023/11/18 08:21:38;;;;;;;2.03;1.92;;;;;;;-1.60;93.07;101523.56;5066185;28;20052;-66
2023/11/18 08:24:07;;;;;;;1.85;1.67;;;;;;;-1.56;93.43;101520.41;5066177;28;20032;-66
2023/11/18 08:26:33;;;;;;;0.95;0.95;;;;;;;-1.43;93.71;101524.56;5065665;28;20044;-66
2023/11/18 08:28:59;;;;;;;1.10;1.10;;;;;;;-1.35;93.76;101525.91;5065944;28;20028;-65
2023/11/18 08:31:24;;;;;;;2.03;1.83;;;;;;;-1.22;93.78;101535.13;5065888;28;20556;-65
2023/11/18 08:33:49;;;;;;;1.23;1.13;;;;;;;-1.14;93.35;101527.94;5065921;28;20029;-65
2023/11/18 08:36:15;;;;;;;3.78;1.65;;;;;;;-1.08;93.23;101524.84;5065897;28;20052;-65
2023/11/18 08:38:40;;;;;;;0.50;0.50;;;;;;;-0.95;92.91;101526.44;5065744;28;20056;-66
2023/11/18 08:41:09;;;;;;;0.50;0.50;;;;;;;-1.01;92.68;101524.44;5065522;28;20025;-67
2023/11/18 08:43:35;;;;;;;1.00;1.00;;;;;;;-0.99;92.26;101530.47;5065840;28;20108;-67
2023/11/18 08:46:01;;;;;;;1.67;1.58;;;;;;;-1.05;92.35;101520.81;5065199;28;20051;-67
2023/11/18 08:48:27;;;;;;;0.90;0.90;;;;;;;-1.01;92.38;101522.72;5065724;28;20048;-67
2023/11/18 08:50:52;;;;;;;1.75;1.65;;;;;;;-1.02;92.09;101521.00;5065026;28;20031;-65
2023/11/18 08:53:25;;;;;;;0.70;0.70;;;;;;;-1.05;92.10;101520.81;5065470;28;20052;-66
2023/11/18 08:55:53;;;;;;;0.60;0.60;;;;;;;-1.06;91.72;101513.97;5065069;28;20033;-67
2023/11/18 08:58:19;;;;;;;1.58;1.33;;;;;;;-1.11;91.99;101505.16;5046376;28;20094;-66
2023/11/18 09:01:05;;;;;;;1.35;1.35;;;;;;;-1.03;92.18;101510.69;5079621;28;20060;-65
2023/11/18 09:03:34;;;;;;;2.15;1.83;;;;;;;-1.04;92.09;101512.38;5064898;28;20040;-66
2023/11/18 09:06:04;;;;;;;1.42;1.33;;;;;;;-0.95;92.41;101516.22;5065124;28;20330;-66
2023/11/18 09:08:38;;;;;;;0.70;0.70;;;;;;;-0.90;92.58;101507.19;5065272;28;20055;-66
2023/11/18 09:11:17;;;;;;;1.80;1.70;;;;;;;-0.86;92.08;101506.56;5065002;28;20025;-66
2023/11/18 09:13:53;;;;;;;0.70;0.70;;;;;;;-0.81;91.57;101509.34;5065313;28;20025;-66
2023/11/18 09:16:22;;;;;;;1.38;1.20;;;;;;;-0.85;91.21;101508.34;5065103;28;20021;-66
2023/11/18 09:18:48;;;;;;;1.50;1.40;;;;;;;-0.86;91.28;101513.34;5064023;28;20032;-67
2023/11/18 09:21:14;;;;;;;0.50;0.50;;;;;;;-0.85;90.98;101513.44;5064876;28;20100;-66
2023/11/18 09:23:42;;;;;;;0.73;0.73;;;;;;;-0.88;91.32;101523.47;5064938;28;20029;-67
2023/11/18 09:26:10;;;;;;;0.60;0.60;;;;;;;-0.92;91.80;101522.41;5064929;28;20021;-67
2023/11/18 09:28:36;;;;;;;0.60;0.60;;;;;;;-0.77;91.17;101517.25;5063599;28;20052;-69
2023/11/18 09:31:03;;;;;;;1.45;1.35;;;;;;;-0.83;91.15;101522.03;5064820;28;20029;-66
2023/11/18 09:33:33;;;;;;;0.73;0.73;;;;;;;-0.81;91.43;101524.66;5064699;28;20025;-65
2023/11/18 09:36:08;;;;;;;0.60;0.60;;;;;;;-0.79;91.52;101517.97;5080341;28;20020;-64
2023/11/18 09:38:40;;;;;;;8.27;1.00;;;;;;;-0.64;92.46;101523.94;5064588;28;20049;-66
2023/11/18 09:41:12;;;;;;;;;;;;;;;-0.47;92.08;101526.56;5064711;28;20377;-65
2023/11/18 09:43:43;;;;;;;;;;;;;;;-0.45;91.76;101529.19;5063976;28;19959;-65
2023/11/18 09:46:13;;;;;;;2.65;1.27;;;;;;;-0.45;91.57;101526.63;5064941;28;19975;-64
2023/11/18 09:48:52;;;;;;;1.00;1.00;;;;;;;-0.43;91.28;101532.72;5064669;28;20025;-66
2023/11/18 09:51:24;;;;;;;0.70;0.70;;;;;;;-0.42;91.38;101524.25;5064661;28;20016;-66
2023/11/18 09:53:54;;;;;;;1.10;1.10;;;;;;;-0.26;91.54;101520.88;5064487;28;20029;-66
2023/11/18 09:56:45;;;;;;;0.75;0.75;;;;;;;-0.08;91.74;101510.75;5064676;28;20035;-66
2023/11/18 09:59:23;;;;;;;0.90;0.90;;;;;;;-0.04;92.15;101464.19;5064548;28;20024;-66
2023/11/18 10:01:53;;;;;;;5.55;3.55;;;;;;;0.48;91.12;101503.41;5067043;28;20024;-66
2023/11/18 10:04:20;;;;;;;0.50;0.50;;;;;;;0.70;91.16;101508.72;5068942;28;20027;-65
2023/11/18 10:06:47;;;;;;;0.57;0.57;;;;;;;0.86;89.57;101495.91;5068874;28;20017;-65
2023/11/18 10:09:15;;;;;;;0.80;0.80;;;;;;;0.71;88.31;101490.91;5068313;28;20025;-64
2023/11/18 10:11:42;;;;;;;0.70;0.70;;;;;;;0.69;88.17;101501.84;5068262;28;20021;-65
2023/11/18 10:14:08;;;;;;;1.80;0.73;;;;;;;0.71;88.61;101496.03;5068130;28;20036;-65
2023/11/18 10:16:34;;;;;;;3.08;2.58;;;;;;;0.85;89.11;101493.25;5083605;28;20029;-65
2023/11/18 10:19:08;;;;;;;2.03;1.92;;;;;;;1.09;89.83;101490.16;5083347;28;20013;-65
2023/11/18 10:21:39;;;;;;;1.13;1.13;;;;;;;1.36;90.01;101476.91;5068465;28;20021;-65
2023/11/18 10:24:11;;;;;;;2.22;2.08;;;;;;;1.48;89.57;101474.94;5068376;28;20047;-64
2023/11/18 10:26:38;;;;;;;0.80;0.80;;;;;;;1.69;89.22;101480.97;5068356;28;20064;-65
2023/11/18 10:29:08;;;;;;;1.27;1.25;;;;;;;1.72;88.25;101484.56;5067944;28;20032;-66
2023/11/18 10:31:37;;;;;;;4.43;1.55;;;;;;;1.75;88.57;101480.34;5068286;28;20040;-65
2023/11/18 10:34:04;;;;;;;1.77;1.55;;;;;;;1.90;89.76;101481.03;5068211;28;20025;-66
2023/11/18 10:36:31;;;;;;;1.95;1.80;;;;;;;2.34;90.35;101482.94;5068114;28;20040;-66
2023/11/18 10:39:00;;;;;;;3.45;1.48;;;;;;;2.62;90.07;101475.53;5067648;28;20108;-67
2023/11/18 10:41:25;;;;;;;1.80;1.70;;;;;;;2.69;88.84;101472.41;5067880;28;20048;-66
2023/11/18 10:44:13;;;;;;;1.77;1.63;;;;;;;2.86;89.47;101478.22;5068072;28;20033;-64
2023/11/18 10:46:59;;;;;;;3.05;2.85;;;;;;;3.02;88.64;101472.03;5068077;28;20078;-65
2023/11/18 10:49:28;;;;;;;3.95;2.65;;;;;;;3.28;87.83;101467.06;5067590;28;20075;-66
2023/11/18 10:51:56;;;;;;;2.70;1.85;;;;;;;3.35;87.05;101470.75;5067624;28;20021;-65
2023/11/18 10:54:22;;;;;;;2.03;1.35;;;;;;;3.50;87.41;101470.44;5067784;28;20020;-67
2023/11/18 10:56:56;;;;;;;1.55;1.15;;;;;;;4.06;85.41;101464.78;5067678;28;20085;-65
2023/11/18 10:59:22;;;;;;;1.23;1.13;;;;;;;4.57;81.45;101465.66;5067822;28;20029;-66
2023/11/18 11:01:48;;;;;;;2.03;1.80;;;;;;;5.08;79.38;101462.94;5067678;28;20025;-67
2023/11/18 11:04:20;;;;;;;2.40;2.22;;;;;;;5.53;75.69;101464.31;5067833;28;20032;-67
2023/11/18 11:06:53;;;;;;;;;;;;;;;5.88;73.06;101457.56;5083460;28;20017;-67
2023/11/18 11:09:27;;;;;;;1.83;1.70;;;;;;;6.03;72.09;101462.28;5067451;28;19955;-67
2023/11/18 11:12:03;;;;;;;2.10;1.30;;;;;;;6.43;72.13;101465.97;5067434;28;20033;-66
2023/11/18 11:14:36;;;;;;;1.40;1.30;;;;;;;6.12;68.87;101464.28;5066810;28;20098;-66
2023/11/18 11:17:14;;;;;;;2.67;2.47;;;;;;;4.99;70.46;101466.13;5066040;28;20029;-67
2023/11/18 11:19:48;;;;;;;3.90;1.77;;;;;;;4.03;72.23;101474.06;5067265;28;20044;-66
2023/11/18 11:22:21;;;;;;;1.60;1.25;;;;;;;3.37;74.10;101466.53;5067283;28;20032;-66
2023/11/18 11:25:10;;;;;;;0.50;0.50;;;;;;;2.93;75.12;101472.53;5066923;28;20025;-66
2023/11/18 11:27:51;;;;;;;0.80;0.80;;;;;;;2.64;76.41;101463.66;5067135;28;20077;-66
2023/11/18 11:30:28;;;;;;;6.18;1.50;;;;;;;2.44;75.64;101459.47;5067487;28;20033;-66